Junction, Illinois
Current Conditions -  °F | °C
As of 6:35 PM on Monday 22 Dec 2014 (Local Time) from KHSB Reporting Station
Light Rain Light Rain  
Wind Chill: 50°   Ceiling: 1800
Heat Index: 50°   Visibility: 10mi
Dew Point: 50°   Wind: 9mph
Humidity: 99%   Direction: 140°SE
Pressure: 29.62"   Gusts: NA
Location:  37.72°N, 88.24°W
Report Text: KHSB 230035Z AUTO 14008KT 10SM -RA BKN018 BKN028 OVC038 10/10 A2962 RMK AO2 T01020100
Loading
Personal Weather Stations






























Interactive Weather Map New forecast layout! Learn more

10-Day Weather Forecast

Advertisements
Track Severe Weather on mobile